sensor_id;sensor_type;location;lat;lon;timestamp;pressure;altitude;pressure_sealevel;temperature;humidity
57904;BME280;43720;47.462;19.030;2023-02-15T05:07:09;102072.62;;;-0.43;96.22
57904;BME280;43720;47.462;19.030;2023-02-15T05:10:12;102067.22;;;-0.56;96.81
57904;BME280;43720;47.462;19.030;2023-02-15T05:13:14;102066.59;;;-0.54;96.37
57904;BME280;43720;47.462;19.030;2023-02-15T05:16:17;102065.72;;;-0.54;96.24
57904;BME280;43720;47.462;19.030;2023-02-15T05:19:20;102068.75;;;-0.68;97.12
57904;BME280;43720;47.462;19.030;2023-02-15T05:22:22;102079.25;;;-0.76;97.20
57904;BME280;43720;47.462;19.030;2023-02-15T05:25:24;102078.13;;;-0.69;96.88
57904;BME280;43720;47.462;19.030;2023-02-15T05:28:46;102084.03;;;-0.60;96.02
57904;BME280;43720;47.462;19.030;2023-02-15T05:31:48;102098.13;;;-0.75;96.94
57904;BME280;43720;47.462;19.030;2023-02-15T05:34:51;102092.91;;;-0.95;98.01
57904;BME280;43720;47.462;19.030;2023-02-15T05:37:53;102105.66;;;-0.87;98.54
57904;BME280;43720;47.462;19.030;2023-02-15T05:40:56;102099.44;;;-0.99;98.55
57904;BME280;43720;47.462;19.030;2023-02-15T05:43:59;102104.66;;;-1.08;99.84
57904;BME280;43720;47.462;19.030;2023-02-15T05:47:01;102109.38;;;-0.83;99.34
57904;BME280;43720;47.462;19.030;2023-02-15T05:50:05;102105.03;;;-0.74;98.22
57904;BME280;43720;47.462;19.030;2023-02-15T05:53:08;102107.22;;;-0.79;98.41
57904;BME280;43720;47.462;19.030;2023-02-15T05:56:11;102103.88;;;-0.78;98.43
57904;BME280;43720;47.462;19.030;2023-02-15T05:59:14;102112.53;;;-0.67;98.12
57904;BME280;43720;47.462;19.030;2023-02-15T06:02:16;102108.37;;;-0.46;96.52
57904;BME280;43720;47.462;19.030;2023-02-15T06:05:19;102117.81;;;-0.65;96.44
57904;BME280;43720;47.462;19.030;2023-02-15T06:08:21;102113.28;;;-0.68;97.27
57904;BME280;43720;47.462;19.030;2023-02-15T06:11:23;102122.09;;;-0.85;98.21
57904;BME280;43720;47.462;19.030;2023-02-15T06:14:26;102113.34;;;-0.87;98.60
57904;BME280;43720;47.462;19.030;2023-02-15T06:17:28;102116.09;;;-0.75;98.59
57904;BME280;43720;47.462;19.030;2023-02-15T06:20:30;102118.06;;;-0.62;97.87
57904;BME280;43720;47.462;19.030;2023-02-15T06:23:33;102115.63;;;-0.61;97.60
57904;BME280;43720;47.462;19.030;2023-02-15T06:26:35;102122.06;;;-0.56;97.20
57904;BME280;43720;47.462;19.030;2023-02-15T06:29:37;102115.19;;;-0.46;96.76
57904;BME280;43720;47.462;19.030;2023-02-15T06:32:39;102105.75;;;-0.56;97.46
57904;BME280;43720;47.462;19.030;2023-02-15T06:35:42;102113.50;;;-0.46;96.70
57904;BME280;43720;47.462;19.030;2023-02-15T06:38:45;102118.88;;;-0.53;97.15
57904;BME280;43720;47.462;19.030;2023-02-15T06:41:47;102122.84;;;-0.57;97.78
57904;BME280;43720;47.462;19.030;2023-02-15T06:44:50;102133.66;;;-0.40;97.28
57904;BME280;43720;47.462;19.030;2023-02-15T06:47:53;102123.16;;;-0.33;97.15
57904;BME280;43720;47.462;19.030;2023-02-15T06:50:55;102118.91;;;-0.33;96.67
57904;BME280;43720;47.462;19.030;2023-02-15T06:53:57;102120.09;;;-0.29;96.67
57904;BME280;43720;47.462;19.030;2023-02-15T06:56:59;102133.47;;;-0.13;97.25
57904;BME280;43720;47.462;19.030;2023-02-15T07:00:03;102126.44;;;0.05;95.46
57904;BME280;43720;47.462;19.030;2023-02-15T07:03:07;102122.44;;;0.09;95.59
57904;BME280;43720;47.462;19.030;2023-02-15T07:06:10;102125.53;;;0.35;93.82
57904;BME280;43720;47.462;19.030;2023-02-15T07:09:12;102122.03;;;0.55;93.40
57904;BME280;43720;47.462;19.030;2023-02-15T07:12:15;102120.84;;;0.72;92.15
57904;BME280;43720;47.462;19.030;2023-02-15T07:15:36;102116.84;;;0.86;91.15
57904;BME280;43720;47.462;19.030;2023-02-15T07:18:39;102115.88;;;0.95;90.22
57904;BME280;43720;47.462;19.030;2023-02-15T07:21:42;102124.87;;;1.01;90.34
57904;BME280;43720;47.462;19.030;2023-02-15T07:24:46;102114.53;;;1.11;91.09
57904;BME280;43720;47.462;19.030;2023-02-15T07:27:56;102118.37;;;1.16;89.92
57904;BME280;43720;47.462;19.030;2023-02-15T07:31:01;102112.47;;;1.17;90.13
57904;BME280;43720;47.462;19.030;2023-02-15T07:34:05;102112.25;;;1.36;89.57
57904;BME280;43720;47.462;19.030;2023-02-15T07:37:08;102115.38;;;1.54;88.42
57904;BME280;43720;47.462;19.030;2023-02-15T07:40:11;102109.28;;;1.63;88.00
57904;BME280;43720;47.462;19.030;2023-02-15T07:43:13;102115.38;;;1.76;88.55
57904;BME280;43720;47.462;19.030;2023-02-15T07:46:16;102118.69;;;1.96;88.48
57904;BME280;43720;47.462;19.030;2023-02-15T07:49:19;102105.84;;;2.08;88.38
57904;BME280;43720;47.462;19.030;2023-02-15T07:52:21;102094.81;;;2.33;87.19
57904;BME280;43720;47.462;19.030;2023-02-15T07:55:24;102100.44;;;2.51;86.75
57904;BME280;43720;47.462;19.030;2023-02-15T07:58:26;102104.84;;;2.63;86.00
57904;BME280;43720;47.462;19.030;2023-02-15T08:01:48;102110.03;;;2.63;86.73
57904;BME280;43720;47.462;19.030;2023-02-15T08:04:51;102102.28;;;2.87;86.04
57904;BME280;43720;47.462;19.030;2023-02-15T08:07:53;102098.88;;;3.00;86.50
57904;BME280;43720;47.462;19.030;2023-02-15T08:14:20;102093.56;;;3.33;86.05
57904;BME280;43720;47.462;19.030;2023-02-15T08:17:26;102090.47;;;3.51;86.67
57904;BME280;43720;47.462;19.030;2023-02-15T08:20:28;102086.16;;;3.63;86.54
57904;BME280;43720;47.462;19.030;2023-02-15T08:23:32;102082.03;;;3.78;85.42
57904;BME280;43720;47.462;19.030;2023-02-15T08:26:34;102086.16;;;4.13;83.79
57904;BME280;43720;47.462;19.030;2023-02-15T08:29:38;102072.06;;;4.34;82.29
57904;BME280;43720;47.462;19.030;2023-02-15T08:32:41;102076.06;;;4.43;81.82
57904;BME280;43720;47.462;19.030;2023-02-15T08:35:43;102076.97;;;4.43;81.21
57904;BME280;43720;47.462;19.030;2023-02-15T08:38:46;102078.28;;;4.50;80.67
57904;BME280;43720;47.462;19.030;2023-02-15T08:41:48;102071.69;;;4.68;80.20
57904;BME280;43720;47.462;19.030;2023-02-15T08:44:50;102074.88;;;4.51;80.30
57904;BME280;43720;47.462;19.030;2023-02-15T08:47:53;102067.72;;;4.47;81.79
57904;BME280;43720;47.462;19.030;2023-02-15T08:50:55;102065.53;;;4.66;80.78
57904;BME280;43720;47.462;19.030;2023-02-15T08:54:00;102076.28;;;4.72;81.47
57904;BME280;43720;47.462;19.030;2023-02-15T08:57:02;102074.37;;;4.83;81.65
57904;BME280;43720;47.462;19.030;2023-02-15T09:00:07;102074.47;;;4.98;80.30
57904;BME280;43720;47.462;19.030;2023-02-15T09:03:11;102078.19;;;4.88;81.30
57904;BME280;43720;47.462;19.030;2023-02-15T09:06:15;102062.72;;;4.89;80.22
57904;BME280;43720;47.462;19.030;2023-02-15T09:09:21;102065.69;;;5.09;80.00
57904;BME280;43720;47.462;19.030;2023-02-15T09:12:23;102076.63;;;5.31;79.08
57904;BME280;43720;47.462;19.030;2023-02-15T09:15:26;102066.75;;;5.26;79.25
57904;BME280;43720;47.462;19.030;2023-02-15T09:18:30;102068.44;;;5.38;78.45
57904;BME280;43720;47.462;19.030;2023-02-15T09:21:36;102061.50;;;5.52;77.36
57904;BME280;43720;47.462;19.030;2023-02-15T09:24:38;102059.31;;;5.58;77.33
57904;BME280;43720;47.462;19.030;2023-02-15T09:27:41;102063.69;;;5.59;77.59
57904;BME280;43720;47.462;19.030;2023-02-15T09:30:43;102060.69;;;5.81;76.95
57904;BME280;43720;47.462;19.030;2023-02-15T09:33:47;102060.94;;;5.99;75.72
57904;BME280;43720;47.462;19.030;2023-02-15T09:36:50;102066.34;;;6.17;74.59
57904;BME280;43720;47.462;19.030;2023-02-15T09:39:53;102059.72;;;6.37;75.68
57904;BME280;43720;47.462;19.030;2023-02-15T09:43:09;102056.16;;;6.35;73.27
57904;BME280;43720;47.462;19.030;2023-02-15T09:53:31;102041.59;;;6.68;72.15
57904;BME280;43720;47.462;19.030;2023-02-15T09:56:45;102042.09;;;6.77;72.03
57904;BME280;43720;47.462;19.030;2023-02-15T10:03:19;102037.50;;;6.88;70.77
57904;BME280;43720;47.462;19.030;2023-02-15T10:06:35;102030.53;;;6.87;70.34
57904;BME280;43720;47.462;19.030;2023-02-15T10:13:39;102025.31;;;6.87;70.99
57904;BME280;43720;47.462;19.030;2023-02-15T10:27:12;102015.97;;;6.74;70.06
57904;BME280;43720;47.462;19.030;2023-02-15T10:33:41;102008.16;;;7.05;69.95
57904;BME280;43720;47.462;19.030;2023-02-15T10:43:48;102015.09;;;7.38;68.77
57904;BME280;43720;47.462;19.030;2023-02-15T10:47:08;102003.72;;;7.52;67.78
57904;BME280;43720;47.462;19.030;2023-02-15T10:50:29;102002.06;;;7.54;67.45
57904;BME280;43720;47.462;19.030;2023-02-15T10:57:18;101987.84;;;7.64;67.69
57904;BME280;43720;47.462;19.030;2023-02-15T11:06:57;101977.25;;;7.77;65.60
57904;BME280;43720;47.462;19.030;2023-02-15T11:10:26;101975.03;;;7.84;66.48
57904;BME280;43720;47.462;19.030;2023-02-15T11:13:34;101972.81;;;7.92;65.95
57904;BME280;43720;47.462;19.030;2023-02-15T11:16:43;101967.06;;;7.98;65.56
57904;BME280;43720;47.462;19.030;2023-02-15T11:20:41;101962.78;;;8.00;66.18
57904;BME280;43720;47.462;19.030;2023-02-15T11:23:46;101952.97;;;8.12;65.83
57904;BME280;43720;47.462;19.030;2023-02-15T11:27:03;101953.06;;;8.31;64.44
57904;BME280;43720;47.462;19.030;2023-02-15T11:30:12;101949.66;;;8.32;64.79
57904;BME280;43720;47.462;19.030;2023-02-15T11:33:20;101950.50;;;8.49;65.42
57904;BME280;43720;47.462;19.030;2023-02-15T11:36:27;101945.56;;;8.55;64.29
57904;BME280;43720;47.462;19.030;2023-02-15T11:39:31;101936.13;;;8.57;64.20
57904;BME280;43720;47.462;19.030;2023-02-15T11:42:35;101934.41;;;8.58;62.51
57904;BME280;43720;47.462;19.030;2023-02-15T11:45:41;101923.09;;;8.57;62.23
57904;BME280;43720;47.462;19.030;2023-02-15T11:48:45;101913.41;;;8.55;62.22
57904;BME280;43720;47.462;19.030;2023-02-15T11:51:53;101912.91;;;8.81;62.51
57904;BME280;43720;47.462;19.030;2023-02-15T11:54:57;101907.91;;;8.86;62.71
57904;BME280;43720;47.462;19.030;2023-02-15T12:04:38;101898.50;;;8.90;61.28
57904;BME280;43720;47.462;19.030;2023-02-15T12:07:46;101897.97;;;8.97;60.39
57904;BME280;43720;47.462;19.030;2023-02-15T12:14:02;101903.38;;;9.01;61.05
57904;BME280;43720;47.462;19.030;2023-02-15T12:17:12;101897.38;;;9.02;60.78
57904;BME280;43720;47.462;19.030;2023-02-15T12:23:19;101888.25;;;9.52;59.78
57904;BME280;43720;47.462;19.030;2023-02-15T12:26:34;101886.63;;;9.35;60.36
57904;BME280;43720;47.462;19.030;2023-02-15T12:29:42;101882.50;;;9.21;60.12
57904;BME280;43720;47.462;19.030;2023-02-15T12:32:53;101881.37;;;9.14;60.91
57904;BME280;43720;47.462;19.030;2023-02-15T12:36:00;101876.16;;;9.14;60.41
57904;BME280;43720;47.462;19.030;2023-02-15T12:42:15;101874.13;;;9.28;60.24
57904;BME280;43720;47.462;19.030;2023-02-15T12:45:32;101866.09;;;9.23;59.98
57904;BME280;43720;47.462;19.030;2023-02-15T12:48:35;101863.63;;;9.26;59.71
57904;BME280;43720;47.462;19.030;2023-02-15T12:51:56;101862.94;;;9.30;59.68
57904;BME280;43720;47.462;19.030;2023-02-15T12:55:23;101843.28;;;9.39;59.29
57904;BME280;43720;47.462;19.030;2023-02-15T12:58:27;101847.84;;;9.44;59.74
57904;BME280;43720;47.462;19.030;2023-02-15T13:01:32;101840.81;;;9.42;58.26
57904;BME280;43720;47.462;19.030;2023-02-15T13:04:34;101829.97;;;9.32;58.63
57904;BME280;43720;47.462;19.030;2023-02-15T13:07:37;101838.13;;;9.40;58.66
57904;BME280;43720;47.462;19.030;2023-02-15T13:11:02;101832.84;;;9.39;58.32
57904;BME280;43720;47.462;19.030;2023-02-15T13:14:28;101828.56;;;9.41;58.88
57904;BME280;43720;47.462;19.030;2023-02-15T13:17:32;101829.53;;;9.43;59.11
57904;BME280;43720;47.462;19.030;2023-02-15T13:20:37;101827.47;;;9.36;58.79
57904;BME280;43720;47.462;19.030;2023-02-15T13:23:46;101830.94;;;9.35;59.25
57904;BME280;43720;47.462;19.030;2023-02-15T13:26:52;101820.50;;;9.35;58.58
57904;BME280;43720;47.462;19.030;2023-02-15T13:30:33;101822.81;;;9.28;59.31
57904;BME280;43720;47.462;19.030;2023-02-15T13:33:37;101822.22;;;9.34;58.96
57904;BME280;43720;47.462;19.030;2023-02-15T13:36:57;101820.50;;;9.35;58.84
57904;BME280;43720;47.462;19.030;2023-02-15T13:40:20;101807.81;;;9.44;59.06
57904;BME280;43720;47.462;19.030;2023-02-15T13:43:50;101812.22;;;9.45;59.11
57904;BME280;43720;47.462;19.030;2023-02-15T13:47:31;101813.03;;;9.44;59.17
57904;BME280;43720;47.462;19.030;2023-02-15T13:51:03;101804.28;;;9.42;56.00
57904;BME280;43720;47.462;19.030;2023-02-15T14:04:21;101804.97;;;9.38;56.64
57904;BME280;43720;47.462;19.030;2023-02-15T14:07:44;101800.22;;;9.29;56.79
57904;BME280;43720;47.462;19.030;2023-02-15T14:17:33;101796.72;;;9.28;57.33
57904;BME280;43720;47.462;19.030;2023-02-15T14:20:45;101795.28;;;9.35;58.74
57904;BME280;43720;47.462;19.030;2023-02-15T14:24:29;101797.62;;;9.29;57.51
57904;BME280;43720;47.462;19.030;2023-02-15T14:30:57;101808.12;;;9.30;58.99
57904;BME280;43720;47.462;19.030;2023-02-15T14:33:59;101804.22;;;9.21;60.10
57904;BME280;43720;47.462;19.030;2023-02-15T14:37:03;101810.00;;;9.14;60.30
57904;BME280;43720;47.462;19.030;2023-02-15T14:44:02;101808.72;;;9.04;59.65
57904;BME280;43720;47.462;19.030;2023-02-15T14:47:16;101808.41;;;8.96;60.17
57904;BME280;43720;47.462;19.030;2023-02-15T14:50:39;101808.44;;;8.98;60.48
57904;BME280;43720;47.462;19.030;2023-02-15T14:53:45;101800.44;;;8.93;60.99
57904;BME280;43720;47.462;19.030;2023-02-15T15:00:12;101800.94;;;8.85;61.76
57904;BME280;43720;47.462;19.030;2023-02-15T15:03:27;101800.38;;;8.72;62.08
57904;BME280;43720;47.462;19.030;2023-02-15T15:06:32;101799.41;;;8.70;62.51
57904;BME280;43720;47.462;19.030;2023-02-15T15:09:37;101792.81;;;8.59;62.66
57904;BME280;43720;47.462;19.030;2023-02-15T15:12:40;101789.47;;;8.42;63.21
57904;BME280;43720;47.462;19.030;2023-02-15T15:15:46;101783.03;;;8.36;63.78
57904;BME280;43720;47.462;19.030;2023-02-15T15:18:48;101790.97;;;8.37;63.70
57904;BME280;43720;47.462;19.030;2023-02-15T15:21:52;101785.91;;;8.40;63.70
57904;BME280;43720;47.462;19.030;2023-02-15T15:24:59;101787.34;;;8.35;63.57
57904;BME280;43720;47.462;19.030;2023-02-15T15:28:02;101783.03;;;8.36;63.83
57904;BME280;43720;47.462;19.030;2023-02-15T15:31:27;101781.78;;;8.27;64.17
57904;BME280;43720;47.462;19.030;2023-02-15T15:38:20;101784.00;;;8.00;65.37
57904;BME280;43720;47.462;19.030;2023-02-15T15:44:52;101793.00;;;7.89;66.46
57904;BME280;43720;47.462;19.030;2023-02-15T15:48:38;101788.56;;;7.87;66.83
57904;BME280;43720;47.462;19.030;2023-02-15T15:51:44;101787.97;;;7.56;68.29
57904;BME280;43720;47.462;19.030;2023-02-15T15:55:04;101789.81;;;7.41;69.36
57904;BME280;43720;47.462;19.030;2023-02-15T15:58:07;101782.78;;;7.22;70.11
57904;BME280;43720;47.462;19.030;2023-02-15T16:01:11;101782.97;;;7.09;70.94
57904;BME280;43720;47.462;19.030;2023-02-15T16:04:31;101780.38;;;7.09;71.03
57904;BME280;43720;47.462;19.030;2023-02-15T16:07:33;101780.22;;;7.06;70.95
57904;BME280;43720;47.462;19.030;2023-02-15T16:10:36;101781.41;;;6.78;71.98
57904;BME280;43720;47.462;19.030;2023-02-15T16:13:41;101772.37;;;6.72;72.88
57904;BME280;43720;47.462;19.030;2023-02-15T16:16:52;101772.19;;;6.85;72.14
57904;BME280;43720;47.462;19.030;2023-02-15T16:20:06;101776.09;;;6.77;72.51
57904;BME280;43720;47.462;19.030;2023-02-15T16:26:48;101779.91;;;6.34;74.74
57904;BME280;43720;47.462;19.030;2023-02-15T16:29:54;101782.25;;;6.30;75.20
57904;BME280;43720;47.462;19.030;2023-02-15T16:33:10;101779.00;;;6.18;75.69
57904;BME280;43720;47.462;19.030;2023-02-15T16:36:24;101794.34;;;6.13;76.04
57904;BME280;43720;47.462;19.030;2023-02-15T16:39:27;101787.50;;;6.15;75.61
